sensor_id;sensor_type;location;lat;lon;timestamp;P1;durP1;ratioP1;P2;durP2;ratioP2
18776;SDS011;9517;51.174;4.160;2023-04-24T00:01:52;33.90;;;21.00;;
18776;SDS011;9517;51.174;4.160;2023-04-24T00:04:21;35.10;;;19.23;;
18776;SDS011;9517;51.174;4.160;2023-04-24T00:06:51;37.90;;;21.07;;
18776;SDS011;9517;51.174;4.160;2023-04-24T00:09:22;35.27;;;21.37;;
18776;SDS011;9517;51.174;4.160;2023-04-24T00:11:49;32.60;;;20.50;;
18776;SDS011;9517;51.174;4.160;2023-04-24T00:14:16;36.57;;;20.67;;
18776;SDS011;9517;51.174;4.160;2023-04-24T00:16:43;32.17;;;19.70;;
18776;SDS011;9517;51.174;4.160;2023-04-24T00:19:10;33.63;;;20.40;;
18776;SDS011;9517;51.174;4.160;2023-04-24T00:21:40;35.83;;;22.00;;
18776;SDS011;9517;51.174;4.160;2023-04-24T00:24:07;37.40;;;21.10;;
18776;SDS011;9517;51.174;4.160;2023-04-24T00:26:35;35.53;;;21.47;;
18776;SDS011;9517;51.174;4.160;2023-04-24T00:29:02;31.10;;;19.03;;
18776;SDS011;9517;51.174;4.160;2023-04-24T00:31:29;33.20;;;21.50;;
18776;SDS011;9517;51.174;4.160;2023-04-24T00:33:57;37.23;;;21.03;;
18776;SDS011;9517;51.174;4.160;2023-04-24T00:36:24;37.70;;;22.20;;
18776;SDS011;9517;51.174;4.160;2023-04-24T00:38:53;33.97;;;21.97;;
18776;SDS011;9517;51.174;4.160;2023-04-24T00:41:20;38.80;;;23.03;;
18776;SDS011;9517;51.174;4.160;2023-04-24T00:43:48;38.07;;;21.90;;
18776;SDS011;9517;51.174;4.160;2023-04-24T00:46:15;38.83;;;22.80;;
18776;SDS011;9517;51.174;4.160;2023-04-24T00:48:43;36.60;;;22.33;;
18776;SDS011;9517;51.174;4.160;2023-04-24T00:51:10;35.60;;;22.07;;
18776;SDS011;9517;51.174;4.160;2023-04-24T00:53:38;39.50;;;25.97;;
18776;SDS011;9517;51.174;4.160;2023-04-24T00:56:07;37.37;;;23.37;;
18776;SDS011;9517;51.174;4.160;2023-04-24T00:58:34;37.80;;;26.20;;
18776;SDS011;9517;51.174;4.160;2023-04-24T01:01:02;42.60;;;27.40;;
18776;SDS011;9517;51.174;4.160;2023-04-24T01:03:32;42.83;;;26.47;;
18776;SDS011;9517;51.174;4.160;2023-04-24T01:06:02;34.77;;;23.63;;
18776;SDS011;9517;51.174;4.160;2023-04-24T01:08:30;36.10;;;23.57;;
18776;SDS011;9517;51.174;4.160;2023-04-24T01:10:58;41.17;;;23.37;;
18776;SDS011;9517;51.174;4.160;2023-04-24T01:13:27;34.50;;;22.13;;
18776;SDS011;9517;51.174;4.160;2023-04-24T01:15:55;36.17;;;21.33;;
18776;SDS011;9517;51.174;4.160;2023-04-24T01:18:22;30.60;;;20.03;;
18776;SDS011;9517;51.174;4.160;2023-04-24T01:20:50;30.60;;;19.37;;
18776;SDS011;9517;51.174;4.160;2023-04-24T01:23:20;30.50;;;18.90;;
18776;SDS011;9517;51.174;4.160;2023-04-24T01:25:48;32.57;;;18.40;;
18776;SDS011;9517;51.174;4.160;2023-04-24T01:28:16;27.73;;;17.73;;
18776;SDS011;9517;51.174;4.160;2023-04-24T01:30:43;29.73;;;16.33;;
18776;SDS011;9517;51.174;4.160;2023-04-24T01:33:11;30.03;;;17.13;;
18776;SDS011;9517;51.174;4.160;2023-04-24T01:35:38;24.27;;;15.00;;
18776;SDS011;9517;51.174;4.160;2023-04-24T01:38:06;24.73;;;15.20;;
18776;SDS011;9517;51.174;4.160;2023-04-24T01:40:35;24.70;;;15.70;;
18776;SDS011;9517;51.174;4.160;2023-04-24T01:43:02;20.20;;;14.03;;
18776;SDS011;9517;51.174;4.160;2023-04-24T01:45:29;22.13;;;13.90;;
18776;SDS011;9517;51.174;4.160;2023-04-24T01:47:56;21.63;;;13.87;;
18776;SDS011;9517;51.174;4.160;2023-04-24T01:50:24;25.53;;;14.80;;
18776;SDS011;9517;51.174;4.160;2023-04-24T01:52:51;22.43;;;14.63;;
18776;SDS011;9517;51.174;4.160;2023-04-24T01:55:18;23.73;;;15.23;;
18776;SDS011;9517;51.174;4.160;2023-04-24T01:57:47;22.73;;;14.80;;
18776;SDS011;9517;51.174;4.160;2023-04-24T02:00:15;25.47;;;14.87;;
18776;SDS011;9517;51.174;4.160;2023-04-24T02:02:42;25.97;;;15.43;;
18776;SDS011;9517;51.174;4.160;2023-04-24T02:05:10;27.30;;;16.70;;
18776;SDS011;9517;51.174;4.160;2023-04-24T02:07:38;28.87;;;16.87;;
18776;SDS011;9517;51.174;4.160;2023-04-24T02:10:05;29.10;;;18.50;;
18776;SDS011;9517;51.174;4.160;2023-04-24T02:12:33;29.33;;;18.17;;
18776;SDS011;9517;51.174;4.160;2023-04-24T02:15:02;28.37;;;18.83;;
18776;SDS011;9517;51.174;4.160;2023-04-24T02:17:29;30.07;;;19.87;;
18776;SDS011;9517;51.174;4.160;2023-04-24T02:19:57;34.20;;;22.30;;
18776;SDS011;9517;51.174;4.160;2023-04-24T02:22:24;33.93;;;21.07;;
18776;SDS011;9517;51.174;4.160;2023-04-24T02:24:51;37.37;;;22.70;;
18776;SDS011;9517;51.174;4.160;2023-04-24T02:27:21;36.43;;;22.20;;
18776;SDS011;9517;51.174;4.160;2023-04-24T02:29:48;32.13;;;22.27;;
18776;SDS011;9517;51.174;4.160;2023-04-24T02:32:16;35.03;;;21.53;;
18776;SDS011;9517;51.174;4.160;2023-04-24T02:34:44;31.37;;;21.57;;
18776;SDS011;9517;51.174;4.160;2023-04-24T02:37:11;35.97;;;21.60;;
18776;SDS011;9517;51.174;4.160;2023-04-24T02:39:38;38.27;;;23.13;;
18776;SDS011;9517;51.174;4.160;2023-04-24T02:42:05;35.03;;;22.53;;
18776;SDS011;9517;51.174;4.160;2023-04-24T02:44:33;35.80;;;24.03;;
18776;SDS011;9517;51.174;4.160;2023-04-24T02:47:00;34.57;;;23.27;;
18776;SDS011;9517;51.174;4.160;2023-04-24T02:49:29;33.67;;;21.93;;
18776;SDS011;9517;51.174;4.160;2023-04-24T02:51:56;36.90;;;23.23;;
18776;SDS011;9517;51.174;4.160;2023-04-24T02:54:23;36.80;;;23.83;;
18776;SDS011;9517;51.174;4.160;2023-04-24T02:56:50;39.37;;;22.97;;
18776;SDS011;9517;51.174;4.160;2023-04-24T02:59:17;34.50;;;22.77;;
18776;SDS011;9517;51.174;4.160;2023-04-24T03:01:44;37.60;;;23.57;;
18776;SDS011;9517;51.174;4.160;2023-04-24T03:04:12;38.23;;;24.40;;
18776;SDS011;9517;51.174;4.160;2023-04-24T03:06:40;39.20;;;23.77;;
18776;SDS011;9517;51.174;4.160;2023-04-24T03:09:07;37.70;;;22.43;;
18776;SDS011;9517;51.174;4.160;2023-04-24T03:11:35;42.50;;;25.90;;
18776;SDS011;9517;51.174;4.160;2023-04-24T03:14:02;42.33;;;26.27;;
18776;SDS011;9517;51.174;4.160;2023-04-24T03:16:29;42.80;;;23.53;;
18776;SDS011;9517;51.174;4.160;2023-04-24T03:18:58;34.50;;;18.53;;
18776;SDS011;9517;51.174;4.160;2023-04-24T03:21:25;26.23;;;13.27;;
18776;SDS011;9517;51.174;4.160;2023-04-24T03:23:54;25.20;;;10.70;;
18776;SDS011;9517;51.174;4.160;2023-04-24T03:26:21;14.90;;;6.13;;
18776;SDS011;9517;51.174;4.160;2023-04-24T03:28:48;21.73;;;8.10;;
18776;SDS011;9517;51.174;4.160;2023-04-24T03:31:16;20.90;;;7.37;;
18776;SDS011;9517;51.174;4.160;2023-04-24T03:33:44;15.37;;;6.67;;
18776;SDS011;9517;51.174;4.160;2023-04-24T03:36:11;15.57;;;6.03;;
18776;SDS011;9517;51.174;4.160;2023-04-24T03:38:39;19.73;;;7.37;;
18776;SDS011;9517;51.174;4.160;2023-04-24T03:41:08;16.40;;;7.47;;
18776;SDS011;9517;51.174;4.160;2023-04-24T03:43:35;16.87;;;7.90;;
18776;SDS011;9517;51.174;4.160;2023-04-24T03:46:03;18.63;;;7.80;;
18776;SDS011;9517;51.174;4.160;2023-04-24T03:48:30;16.73;;;6.07;;
18776;SDS011;9517;51.174;4.160;2023-04-24T03:50:57;19.17;;;8.30;;
18776;SDS011;9517;51.174;4.160;2023-04-24T03:53:24;18.47;;;7.57;;
18776;SDS011;9517;51.174;4.160;2023-04-24T03:55:52;16.97;;;8.53;;
18776;SDS011;9517;51.174;4.160;2023-04-24T03:58:21;20.97;;;9.30;;
18776;SDS011;9517;51.174;4.160;2023-04-24T04:00:48;20.70;;;9.40;;
18776;SDS011;9517;51.174;4.160;2023-04-24T04:03:16;20.10;;;9.03;;
18776;SDS011;9517;51.174;4.160;2023-04-24T04:05:43;18.07;;;9.97;;
18776;SDS011;9517;51.174;4.160;2023-04-24T04:08:10;22.90;;;10.50;;
18776;SDS011;9517;51.174;4.160;2023-04-24T04:10:37;24.00;;;12.60;;
18776;SDS011;9517;51.174;4.160;2023-04-24T04:13:04;28.93;;;13.03;;
18776;SDS011;9517;51.174;4.160;2023-04-24T04:15:33;23.57;;;13.03;;
18776;SDS011;9517;51.174;4.160;2023-04-24T04:18:00;27.70;;;13.50;;
18776;SDS011;9517;51.174;4.160;2023-04-24T04:20:28;29.03;;;15.10;;
18776;SDS011;9517;51.174;4.160;2023-04-24T04:22:55;33.53;;;15.80;;
18776;SDS011;9517;51.174;4.160;2023-04-24T04:25:22;34.93;;;19.17;;
18776;SDS011;9517;51.174;4.160;2023-04-24T04:27:50;35.00;;;18.17;;
18776;SDS011;9517;51.174;4.160;2023-04-24T04:30:18;37.80;;;17.53;;
18776;SDS011;9517;51.174;4.160;2023-04-24T04:32:47;38.97;;;19.17;;
18776;SDS011;9517;51.174;4.160;2023-04-24T04:35:15;39.03;;;19.07;;
18776;SDS011;9517;51.174;4.160;2023-04-24T04:37:42;41.67;;;19.73;;
18776;SDS011;9517;51.174;4.160;2023-04-24T04:40:09;38.63;;;19.17;;
18776;SDS011;9517;51.174;4.160;2023-04-24T04:42:37;41.87;;;20.30;;
18776;SDS011;9517;51.174;4.160;2023-04-24T04:45:05;36.40;;;19.47;;
18776;SDS011;9517;51.174;4.160;2023-04-24T04:47:34;44.37;;;20.90;;
18776;SDS011;9517;51.174;4.160;2023-04-24T04:50:03;38.37;;;17.93;;
18776;SDS011;9517;51.174;4.160;2023-04-24T04:52:31;40.30;;;17.43;;
18776;SDS011;9517;51.174;4.160;2023-04-24T04:54:58;31.17;;;18.17;;
18776;SDS011;9517;51.174;4.160;2023-04-24T04:57:25;33.27;;;16.60;;
18776;SDS011;9517;51.174;4.160;2023-04-24T04:59:52;36.20;;;16.93;;
18776;SDS011;9517;51.174;4.160;2023-04-24T05:02:20;35.40;;;18.27;;
18776;SDS011;9517;51.174;4.160;2023-04-24T05:04:47;25.93;;;13.20;;
18776;SDS011;9517;51.174;4.160;2023-04-24T05:07:15;32.37;;;16.13;;
18776;SDS011;9517;51.174;4.160;2023-04-24T05:09:43;37.43;;;16.77;;
18776;SDS011;9517;51.174;4.160;2023-04-24T05:12:10;38.43;;;15.80;;
18776;SDS011;9517;51.174;4.160;2023-04-24T05:14:37;35.80;;;16.40;;
18776;SDS011;9517;51.174;4.160;2023-04-24T05:17:04;41.40;;;17.50;;
18776;SDS011;9517;51.174;4.160;2023-04-24T05:19:31;35.53;;;15.33;;
18776;SDS011;9517;51.174;4.160;2023-04-24T05:22:01;34.53;;;14.93;;
18776;SDS011;9517;51.174;4.160;2023-04-24T05:24:30;30.37;;;16.30;;
18776;SDS011;9517;51.174;4.160;2023-04-24T05:26:57;33.10;;;15.67;;
18776;SDS011;9517;51.174;4.160;2023-04-24T05:29:24;27.30;;;15.20;;
18776;SDS011;9517;51.174;4.160;2023-04-24T05:31:52;32.33;;;15.20;;
18776;SDS011;9517;51.174;4.160;2023-04-24T05:34:19;35.07;;;17.97;;
18776;SDS011;9517;51.174;4.160;2023-04-24T05:36:46;39.77;;;18.47;;
18776;SDS011;9517;51.174;4.160;2023-04-24T05:39:14;39.53;;;17.97;;
18776;SDS011;9517;51.174;4.160;2023-04-24T05:41:42;36.30;;;18.33;;
18776;SDS011;9517;51.174;4.160;2023-04-24T05:44:09;32.03;;;17.30;;
18776;SDS011;9517;51.174;4.160;2023-04-24T05:46:36;37.57;;;18.37;;
18776;SDS011;9517;51.174;4.160;2023-04-24T05:49:03;36.67;;;18.97;;
18776;SDS011;9517;51.174;4.160;2023-04-24T05:51:30;41.13;;;18.83;;
18776;SDS011;9517;51.174;4.160;2023-04-24T05:53:58;38.70;;;20.67;;
18776;SDS011;9517;51.174;4.160;2023-04-24T05:56:25;40.57;;;21.60;;
18776;SDS011;9517;51.174;4.160;2023-04-24T05:58:53;41.87;;;20.33;;
18776;SDS011;9517;51.174;4.160;2023-04-24T06:01:20;39.83;;;21.43;;
18776;SDS011;9517;51.174;4.160;2023-04-24T06:03:48;43.27;;;20.40;;
18776;SDS011;9517;51.174;4.160;2023-04-24T06:06:15;44.77;;;19.97;;
18776;SDS011;9517;51.174;4.160;2023-04-24T06:08:42;43.77;;;21.23;;
18776;SDS011;9517;51.174;4.160;2023-04-24T06:11:10;48.00;;;22.13;;
18776;SDS011;9517;51.174;4.160;2023-04-24T06:13:37;46.27;;;22.73;;
18776;SDS011;9517;51.174;4.160;2023-04-24T06:16:06;50.17;;;22.07;;
18776;SDS011;9517;51.174;4.160;2023-04-24T06:18:33;45.43;;;21.37;;
18776;SDS011;9517;51.174;4.160;2023-04-24T06:21:00;39.73;;;20.33;;
18776;SDS011;9517;51.174;4.160;2023-04-24T06:23:27;47.73;;;22.27;;
18776;SDS011;9517;51.174;4.160;2023-04-24T06:25:54;46.03;;;20.60;;
18776;SDS011;9517;51.174;4.160;2023-04-24T06:28:21;39.67;;;19.03;;
18776;SDS011;9517;51.174;4.160;2023-04-24T06:30:48;52.47;;;20.70;;
18776;SDS011;9517;51.174;4.160;2023-04-24T06:33:17;35.83;;;16.33;;
18776;SDS011;9517;51.174;4.160;2023-04-24T06:35:44;31.07;;;16.13;;
18776;SDS011;9517;51.174;4.160;2023-04-24T06:38:11;34.43;;;16.57;;
18776;SDS011;9517;51.174;4.160;2023-04-24T06:40:38;33.50;;;14.23;;
18776;SDS011;9517;51.174;4.160;2023-04-24T06:43:05;30.20;;;11.63;;
18776;SDS011;9517;51.174;4.160;2023-04-24T06:45:32;34.43;;;11.57;;
18776;SDS011;9517;51.174;4.160;2023-04-24T06:47:59;20.53;;;10.33;;
18776;SDS011;9517;51.174;4.160;2023-04-24T06:50:28;23.83;;;9.07;;
18776;SDS011;9517;51.174;4.160;2023-04-24T06:52:55;28.23;;;9.17;;
18776;SDS011;9517;51.174;4.160;2023-04-24T06:55:22;30.63;;;8.83;;
18776;SDS011;9517;51.174;4.160;2023-04-24T06:57:49;20.37;;;8.73;;
18776;SDS011;9517;51.174;4.160;2023-04-24T07:00:16;27.57;;;8.23;;
18776;SDS011;9517;51.174;4.160;2023-04-24T07:02:43;24.27;;;8.90;;
18776;SDS011;9517;51.174;4.160;2023-04-24T07:05:10;31.60;;;9.73;;
18776;SDS011;9517;51.174;4.160;2023-04-24T07:07:39;27.03;;;7.83;;
18776;SDS011;9517;51.174;4.160;2023-04-24T07:10:07;23.93;;;8.40;;
18776;SDS011;9517;51.174;4.160;2023-04-24T07:12:34;23.87;;;7.97;;
18776;SDS011;9517;51.174;4.160;2023-04-24T07:15:02;24.23;;;8.60;;
18776;SDS011;9517;51.174;4.160;2023-04-24T07:17:30;21.30;;;7.17;;
18776;SDS011;9517;51.174;4.160;2023-04-24T07:19:57;26.37;;;8.03;;
18776;SDS011;9517;51.174;4.160;2023-04-24T07:22:24;24.40;;;8.30;;
18776;SDS011;9517;51.174;4.160;2023-04-24T07:24:53;26.83;;;8.23;;
18776;SDS011;9517;51.174;4.160;2023-04-24T07:27:20;24.07;;;7.50;;
18776;SDS011;9517;51.174;4.160;2023-04-24T07:29:47;23.60;;;7.33;;
18776;SDS011;9517;51.174;4.160;2023-04-24T07:32:14;25.60;;;7.17;;
18776;SDS011;9517;51.174;4.160;2023-04-24T07:34:41;24.17;;;8.37;;
18776;SDS011;9517;51.174;4.160;2023-04-24T07:37:08;27.20;;;8.37;;
18776;SDS011;9517;51.174;4.160;2023-04-24T07:39:35;27.73;;;8.00;;
18776;SDS011;9517;51.174;4.160;2023-04-24T07:42:03;26.63;;;6.87;;
18776;SDS011;9517;51.174;4.160;2023-04-24T07:44:30;21.37;;;5.87;;
18776;SDS011;9517;51.174;4.160;2023-04-24T07:46:58;19.57;;;5.90;;
18776;SDS011;9517;51.174;4.160;2023-04-24T07:49:25;25.13;;;5.97;;
18776;SDS011;9517;51.174;4.160;2023-04-24T07:51:52;17.80;;;4.83;;
18776;SDS011;9517;51.174;4.160;2023-04-24T07:54:20;23.80;;;7.13;;
18776;SDS011;9517;51.174;4.160;2023-04-24T07:56:48;23.57;;;6.47;;
18776;SDS011;9517;51.174;4.160;2023-04-24T07:59:17;26.00;;;6.63;;
18776;SDS011;9517;51.174;4.160;2023-04-24T08:01:44;25.30;;;6.93;;
18776;SDS011;9517;51.174;4.160;2023-04-24T08:04:11;25.73;;;7.70;;
18776;SDS011;9517;51.174;4.160;2023-04-24T08:06:38;26.73;;;6.93;;
18776;SDS011;9517;51.174;4.160;2023-04-24T08:09:05;23.77;;;6.53;;
18776;SDS011;9517;51.174;4.160;2023-04-24T08:11:32;24.23;;;6.53;;
18776;SDS011;9517;51.174;4.160;2023-04-24T08:13:59;21.30;;;5.60;;
18776;SDS011;9517;51.174;4.160;2023-04-24T08:16:27;20.80;;;4.93;;
18776;SDS011;9517;51.174;4.160;2023-04-24T08:18:54;22.10;;;5.10;;
18776;SDS011;9517;51.174;4.160;2023-04-24T08:21:22;18.17;;;5.03;;
18776;SDS011;9517;51.174;4.160;2023-04-24T08:23:49;18.23;;;5.30;;
18776;SDS011;9517;51.174;4.160;2023-04-24T08:26:16;24.80;;;5.83;;
18776;SDS011;9517;51.174;4.160;2023-04-24T08:28:43;19.27;;;4.00;;
18776;SDS011;9517;51.174;4.160;2023-04-24T08:31:10;17.40;;;3.90;;
18776;SDS011;9517;51.174;4.160;2023-04-24T08:33:38;19.20;;;4.47;;
18776;SDS011;9517;51.174;4.160;2023-04-24T08:36:06;18.47;;;4.23;;
18776;SDS011;9517;51.174;4.160;2023-04-24T08:38:33;19.67;;;4.50;;
18776;SDS011;9517;51.174;4.160;2023-04-24T08:41:01;17.53;;;4.50;;
18776;SDS011;9517;51.174;4.160;2023-04-24T08:43:29;24.93;;;4.90;;
18776;SDS011;9517;51.174;4.160;2023-04-24T08:45:57;22.43;;;6.23;;
18776;SDS011;9517;51.174;4.160;2023-04-24T08:48:25;18.30;;;5.50;;
18776;SDS011;9517;51.174;4.160;2023-04-24T08:50:55;23.43;;;6.30;;
18776;SDS011;9517;51.174;4.160;2023-04-24T08:53:23;22.00;;;6.70;;
18776;SDS011;9517;51.174;4.160;2023-04-24T08:55:51;26.67;;;6.10;;
18776;SDS011;9517;51.174;4.160;2023-04-24T08:58:20;22.60;;;6.53;;
18776;SDS011;9517;51.174;4.160;2023-04-24T09:00:47;16.00;;;5.67;;
18776;SDS011;9517;51.174;4.160;2023-04-24T09:03:15;16.33;;;5.77;;
18776;SDS011;9517;51.174;4.160;2023-04-24T09:05:43;19.33;;;5.13;;
18776;SDS011;9517;51.174;4.160;2023-04-24T09:08:14;22.43;;;5.67;;
18776;SDS011;9517;51.174;4.160;2023-04-24T09:10:42;19.57;;;5.10;;
18776;SDS011;9517;51.174;4.160;2023-04-24T09:13:09;22.20;;;5.60;;
18776;SDS011;9517;51.174;4.160;2023-04-24T09:15:36;20.43;;;4.87;;
18776;SDS011;9517;51.174;4.160;2023-04-24T09:18:04;18.80;;;4.37;;
18776;SDS011;9517;51.174;4.160;2023-04-24T09:20:31;12.93;;;3.90;;
18776;SDS011;9517;51.174;4.160;2023-04-24T09:23:01;12.73;;;3.87;;
18776;SDS011;9517;51.174;4.160;2023-04-24T09:25:32;21.80;;;4.83;;
18776;SDS011;9517;51.174;4.160;2023-04-24T09:28:01;29.53;;;5.60;;
18776;SDS011;9517;51.174;4.160;2023-04-24T09:30:28;14.93;;;3.30;;
18776;SDS011;9517;51.174;4.160;2023-04-24T09:35:40;13.17;;;3.13;;
18776;SDS011;9517;51.174;4.160;2023-04-24T09:38:08;15.07;;;3.57;;
18776;SDS011;9517;51.174;4.160;2023-04-24T09:40:37;15.80;;;3.30;;
18776;SDS011;9517;51.174;4.160;2023-04-24T09:43:05;12.23;;;3.00;;
18776;SDS011;9517;51.174;4.160;2023-04-24T09:45:38;19.87;;;4.40;;
18776;SDS011;9517;51.174;4.160;2023-04-24T09:48:07;17.07;;;3.20;;
18776;SDS011;9517;51.174;4.160;2023-04-24T09:50:36;9.50;;;2.83;;
18776;SDS011;9517;51.174;4.160;2023-04-24T09:53:03;13.47;;;3.13;;
18776;SDS011;9517;51.174;4.160;2023-04-24T09:55:33;9.33;;;2.67;;
18776;SDS011;9517;51.174;4.160;2023-04-24T09:58:11;11.67;;;3.03;;
18776;SDS011;9517;51.174;4.160;2023-04-24T10:00:38;10.67;;;2.43;;
18776;SDS011;9517;51.174;4.160;2023-04-24T10:03:06;10.33;;;2.60;;
18776;SDS011;9517;51.174;4.160;2023-04-24T10:05:34;9.53;;;2.30;;
18776;SDS011;9517;51.174;4.160;2023-04-24T10:08:03;9.47;;;2.70;;
18776;SDS011;9517;51.174;4.160;2023-04-24T10:10:31;9.67;;;2.43;;
18776;SDS011;9517;51.174;4.160;2023-04-24T10:13:04;14.77;;;2.93;;
18776;SDS011;9517;51.174;4.160;2023-04-24T10:15:35;11.60;;;3.33;;
18776;SDS011;9517;51.174;4.160;2023-04-24T10:18:03;13.77;;;3.03;;
18776;SDS011;9517;51.174;4.160;2023-04-24T10:20:32;12.53;;;3.03;;
18776;SDS011;9517;51.174;4.160;2023-04-24T10:23:00;10.37;;;3.40;;
18776;SDS011;9517;51.174;4.160;2023-04-24T10:25:28;10.53;;;2.83;;
18776;SDS011;9517;51.174;4.160;2023-04-24T10:27:58;9.03;;;2.90;;
18776;SDS011;9517;51.174;4.160;2023-04-24T10:30:29;11.93;;;3.70;;
18776;SDS011;9517;51.174;4.160;2023-04-24T10:33:00;14.80;;;4.30;;
18776;SDS011;9517;51.174;4.160;2023-04-24T10:35:29;10.67;;;3.17;;
18776;SDS011;9517;51.174;4.160;2023-04-24T10:37:58;12.20;;;3.17;;
18776;SDS011;9517;51.174;4.160;2023-04-24T10:40:30;15.37;;;3.53;;
18776;SDS011;9517;51.174;4.160;2023-04-24T10:42:59;10.10;;;2.53;;
18776;SDS011;9517;51.174;4.160;2023-04-24T10:45:29;11.43;;;3.00;;
18776;SDS011;9517;51.174;4.160;2023-04-24T10:47:57;12.80;;;3.10;;
18776;SDS011;9517;51.174;4.160;2023-04-24T10:50:26;12.27;;;3.40;;
18776;SDS011;9517;51.174;4.160;2023-04-24T10:53:15;12.17;;;2.90;;
18776;SDS011;9517;51.174;4.160;2023-04-24T10:55:48;11.53;;;2.87;;
18776;SDS011;9517;51.174;4.160;2023-04-24T10:58:49;10.90;;;2.40;;
18776;SDS011;9517;51.174;4.160;2023-04-24T11:01:25;10.90;;;2.23;;
18776;SDS011;9517;51.174;4.160;2023-04-24T11:03:54;8.97;;;2.13;;
18776;SDS011;9517;51.174;4.160;2023-04-24T11:06:28;6.80;;;2.03;;
18776;SDS011;9517;51.174;4.160;2023-04-24T11:08:59;6.23;;;1.90;;
18776;SDS011;9517;51.174;4.160;2023-04-24T11:11:30;6.90;;;1.80;;
18776;SDS011;9517;51.174;4.160;2023-04-24T11:14:07;8.53;;;1.50;;
18776;SDS011;9517;51.174;4.160;2023-04-24T11:16:38;9.13;;;1.80;;
18776;SDS011;9517;51.174;4.160;2023-04-24T11:19:09;6.60;;;1.53;;
18776;SDS011;9517;51.174;4.160;2023-04-24T11:21:45;7.07;;;1.70;;
18776;SDS011;9517;51.174;4.160;2023-04-24T11:24:32;7.13;;;1.70;;
18776;SDS011;9517;51.174;4.160;2023-04-24T11:27:11;7.63;;;1.73;;
18776;SDS011;9517;51.174;4.160;2023-04-24T11:29:40;5.57;;;1.60;;
18776;SDS011;9517;51.174;4.160;2023-04-24T11:32:17;8.67;;;2.03;;
18776;SDS011;9517;51.174;4.160;2023-04-24T11:34:46;8.17;;;1.90;;
18776;SDS011;9517;51.174;4.160;2023-04-24T11:37:14;9.73;;;2.60;;
18776;SDS011;9517;51.174;4.160;2023-04-24T11:39:41;7.03;;;1.80;;
18776;SDS011;9517;51.174;4.160;2023-04-24T11:42:08;7.43;;;1.70;;
18776;SDS011;9517;51.174;4.160;2023-04-24T11:44:36;7.20;;;1.63;;
18776;SDS011;9517;51.174;4.160;2023-04-24T11:47:04;6.23;;;1.50;;
18776;SDS011;9517;51.174;4.160;2023-04-24T11:49:33;5.83;;;1.60;;
18776;SDS011;9517;51.174;4.160;2023-04-24T11:52:02;9.93;;;2.00;;
18776;SDS011;9517;51.174;4.160;2023-04-24T11:54:30;6.87;;;1.70;;
18776;SDS011;9517;51.174;4.160;2023-04-24T11:56:57;9.67;;;1.83;;
18776;SDS011;9517;51.174;4.160;2023-04-24T11:59:24;6.93;;;1.67;;
18776;SDS011;9517;51.174;4.160;2023-04-24T12:01:52;11.00;;;1.87;;
18776;SDS011;9517;51.174;4.160;2023-04-24T12:04:19;6.47;;;1.70;;
18776;SDS011;9517;51.174;4.160;2023-04-24T12:07:02;7.70;;;2.00;;
18776;SDS011;9517;51.174;4.160;2023-04-24T12:09:40;5.57;;;1.43;;
18776;SDS011;9517;51.174;4.160;2023-04-24T12:12:08;7.73;;;1.80;;
18776;SDS011;9517;51.174;4.160;2023-04-24T12:14:41;5.47;;;1.73;;
18776;SDS011;9517;51.174;4.160;2023-04-24T12:17:09;6.17;;;1.60;;
18776;SDS011;9517;51.174;4.160;2023-04-24T12:19:36;10.23;;;2.27;;
18776;SDS011;9517;51.174;4.160;2023-04-24T12:22:05;9.37;;;2.00;;
18776;SDS011;9517;51.174;4.160;2023-04-24T12:24:33;9.07;;;1.80;;
18776;SDS011;9517;51.174;4.160;2023-04-24T12:27:00;10.87;;;2.30;;
18776;SDS011;9517;51.174;4.160;2023-04-24T12:29:27;9.90;;;2.13;;
18776;SDS011;9517;51.174;4.160;2023-04-24T12:31:54;10.17;;;2.20;;
18776;SDS011;9517;51.174;4.160;2023-04-24T12:34:22;6.97;;;2.00;;
18776;SDS011;9517;51.174;4.160;2023-04-24T12:36:51;6.87;;;2.10;;
18776;SDS011;9517;51.174;4.160;2023-04-24T12:39:19;12.17;;;2.30;;
18776;SDS011;9517;51.174;4.160;2023-04-24T12:41:58;6.67;;;2.30;;
18776;SDS011;9517;51.174;4.160;2023-04-24T12:44:29;8.43;;;2.43;;
18776;SDS011;9517;51.174;4.160;2023-04-24T12:46:57;9.80;;;2.40;;
18776;SDS011;9517;51.174;4.160;2023-04-24T12:49:25;12.30;;;2.80;;
18776;SDS011;9517;51.174;4.160;2023-04-24T12:51:52;7.13;;;1.50;;
18776;SDS011;9517;51.174;4.160;2023-04-24T12:54:20;7.00;;;1.33;;
18776;SDS011;9517;51.174;4.160;2023-04-24T12:56:48;6.77;;;1.80;;
18776;SDS011;9517;51.174;4.160;2023-04-24T12:59:15;6.27;;;1.40;;
18776;SDS011;9517;51.174;4.160;2023-04-24T13:01:42;7.20;;;1.30;;
18776;SDS011;9517;51.174;4.160;2023-04-24T13:04:09;4.23;;;1.00;;
18776;SDS011;9517;51.174;4.160;2023-04-24T13:06:36;6.90;;;1.30;;
18776;SDS011;9517;51.174;4.160;2023-04-24T13:09:04;7.53;;;1.63;;
18776;SDS011;9517;51.174;4.160;2023-04-24T13:11:32;6.70;;;1.37;;
18776;SDS011;9517;51.174;4.160;2023-04-24T13:13:59;8.40;;;1.97;;
18776;SDS011;9517;51.174;4.160;2023-04-24T13:16:26;4.67;;;1.80;;
18776;SDS011;9517;51.174;4.160;2023-04-24T13:18:53;8.00;;;1.70;;
18776;SDS011;9517;51.174;4.160;2023-04-24T13:21:20;5.83;;;1.70;;
18776;SDS011;9517;51.174;4.160;2023-04-24T13:23:47;7.70;;;1.70;;
18776;SDS011;9517;51.174;4.160;2023-04-24T13:26:14;9.53;;;2.27;;
18776;SDS011;9517;51.174;4.160;2023-04-24T13:28:43;4.60;;;1.50;;
18776;SDS011;9517;51.174;4.160;2023-04-24T13:31:10;6.77;;;1.80;;
18776;SDS011;9517;51.174;4.160;2023-04-24T13:33:37;12.10;;;1.77;;
18776;SDS011;9517;51.174;4.160;2023-04-24T13:36:05;8.00;;;1.83;;
18776;SDS011;9517;51.174;4.160;2023-04-24T13:38:32;10.40;;;1.60;;
18776;SDS011;9517;51.174;4.160;2023-04-24T13:40:59;6.03;;;1.60;;
18776;SDS011;9517;51.174;4.160;2023-04-24T13:43:26;5.23;;;1.47;;
18776;SDS011;9517;51.174;4.160;2023-04-24T13:45:55;6.67;;;1.70;;
18776;SDS011;9517;51.174;4.160;2023-04-24T13:48:22;7.47;;;1.60;;
18776;SDS011;9517;51.174;4.160;2023-04-24T13:50:49;4.77;;;1.40;;
18776;SDS011;9517;51.174;4.160;2023-04-24T13:53:16;6.80;;;1.60;;
18776;SDS011;9517;51.174;4.160;2023-04-24T13:55:43;6.10;;;1.43;;
18776;SDS011;9517;51.174;4.160;2023-04-24T13:58:10;6.53;;;1.30;;
18776;SDS011;9517;51.174;4.160;2023-04-24T14:00:37;9.83;;;1.70;;
18776;SDS011;9517;51.174;4.160;2023-04-24T14:03:06;6.43;;;1.30;;
18776;SDS011;9517;51.174;4.160;2023-04-24T14:05:33;5.60;;;1.43;;
18776;SDS011;9517;51.174;4.160;2023-04-24T14:08:00;6.70;;;1.70;;
18776;SDS011;9517;51.174;4.160;2023-04-24T14:10:27;6.40;;;1.60;;
18776;SDS011;9517;51.174;4.160;2023-04-24T14:12:54;8.60;;;1.40;;
18776;SDS011;9517;51.174;4.160;2023-04-24T14:15:22;4.80;;;1.57;;
18776;SDS011;9517;51.174;4.160;2023-04-24T14:17:49;6.70;;;1.50;;
18776;SDS011;9517;51.174;4.160;2023-04-24T14:20:17;7.13;;;1.50;;
18776;SDS011;9517;51.174;4.160;2023-04-24T14:22:44;6.07;;;1.67;;
18776;SDS011;9517;51.174;4.160;2023-04-24T14:25:11;10.20;;;1.73;;
18776;SDS011;9517;51.174;4.160;2023-04-24T14:27:38;6.70;;;1.40;;
18776;SDS011;9517;51.174;4.160;2023-04-24T14:30:06;7.50;;;1.53;;
18776;SDS011;9517;51.174;4.160;2023-04-24T14:32:34;8.03;;;1.50;;
18776;SDS011;9517;51.174;4.160;2023-04-24T14:35:01;9.10;;;2.03;;
18776;SDS011;9517;51.174;4.160;2023-04-24T14:37:30;9.97;;;2.10;;
18776;SDS011;9517;51.174;4.160;2023-04-24T14:39:56;7.30;;;1.60;;
18776;SDS011;9517;51.174;4.160;2023-04-24T14:42:24;8.93;;;2.90;;
18776;SDS011;9517;51.174;4.160;2023-04-24T14:44:51;8.87;;;2.10;;
18776;SDS011;9517;51.174;4.160;2023-04-24T14:47:18;8.87;;;1.93;;
18776;SDS011;9517;51.174;4.160;2023-04-24T14:49:46;5.13;;;1.30;;
18776;SDS011;9517;51.174;4.160;2023-04-24T14:52:14;6.40;;;1.60;;
18776;SDS011;9517;51.174;4.160;2023-04-24T14:54:42;7.20;;;2.00;;